Filey, United Kingdom
Current Conditions -  °F | °C
As of 9:50 AM on Monday 20 Oct 2014 (Local Time) from EGXV Reporting Station
Broken Clouds Broken Clouds  
Wind Chill: 11°   Ceiling: 3900
Heat Index: 11°   Visibility: 6mi
Dew Point: 10°   Wind: 10mph
Humidity: 94%   Direction: 220°SW
Pressure: 29.88"   Gusts: NA
Location:  54.21°N, 0.29°W
Report Text: EGXV 200850Z AUTO 22009KT 9999 BKN039/// 11/10 Q1012
Loading
Personal Weather Stations






























Interactive Weather Map
Tropical Storm Tracking
New forecast layout! Learn more

10-Day Weather Forecast

Advertisements
Track Severe Weather on mobile